createdAt,value
2023-03-20T00:00:18.602Z,101207.16
2023-03-20T00:02:48.271Z,101209.56
2023-03-20T00:05:23.807Z,101206.19
2023-03-20T00:07:54.002Z,101206.91
2023-03-20T00:10:33.281Z,101215.44
2023-03-20T00:13:03.023Z,101197.94
2023-03-20T00:15:35.129Z,101219.94
2023-03-20T00:18:05.080Z,101193.03
2023-03-20T00:20:34.900Z,101211.97
2023-03-20T00:23:05.065Z,101229.13
2023-03-20T00:25:37.480Z,101229.78
2023-03-20T00:28:29.704Z,101202.09
2023-03-20T00:30:59.500Z,101224.22
2023-03-20T00:33:31.416Z,101221.69
2023-03-20T00:36:01.767Z,101172.00
2023-03-20T00:38:31.501Z,101223.91
2023-03-20T00:41:03.904Z,101218.34
2023-03-20T00:43:33.884Z,101227.81
2023-03-20T00:46:03.531Z,101224.50
2023-03-20T00:48:33.754Z,101206.47
2023-03-20T00:51:03.511Z,101220.44
2023-03-20T00:53:34.826Z,101225.00
2023-03-20T00:56:08.140Z,101225.25
2023-03-20T00:58:38.923Z,101220.06
2023-03-20T01:01:08.673Z,101222.19
2023-03-20T01:03:40.684Z,101192.06
2023-03-20T01:06:14.356Z,101208.69
2023-03-20T01:08:44.054Z,101206.03
2023-03-20T01:11:16.866Z,101198.31
2023-03-20T01:13:46.590Z,101226.75
2023-03-20T01:16:23.527Z,101215.47
2023-03-20T01:18:53.871Z,101235.16
2023-03-20T01:21:24.063Z,101224.66
2023-03-20T01:23:53.764Z,101243.53
2023-03-20T01:26:32.016Z,101244.44
2023-03-20T01:29:01.685Z,101238.47
2023-03-20T01:31:32.528Z,101234.25
2023-03-20T01:34:02.378Z,101149.66
2023-03-20T01:36:32.481Z,101218.03
2023-03-20T01:39:02.982Z,101231.56
2023-03-20T01:41:35.797Z,101233.09
2023-03-20T01:44:22.413Z,101232.88
2023-03-20T01:46:56.449Z,101224.72
2023-03-20T01:49:56.294Z,101240.34
2023-03-20T01:52:26.197Z,101247.09
2023-03-20T01:54:56.202Z,101226.19
2023-03-20T01:57:28.964Z,101245.25
2023-03-20T02:00:05.655Z,101259.59
2023-03-20T02:02:47.221Z,101237.03
2023-03-20T02:05:31.487Z,101268.38
2023-03-20T02:08:11.268Z,101263.34
2023-03-20T02:10:41.567Z,101259.91
2023-03-20T02:13:24.496Z,101250.25
2023-03-20T02:16:08.546Z,101258.13
2023-03-20T02:18:59.141Z,101224.25
2023-03-20T02:22:05.192Z,101243.38
2023-03-20T02:25:15.749Z,101234.50
2023-03-20T02:28:02.004Z,101247.22
2023-03-20T02:30:49.385Z,101246.84
2023-03-20T02:33:51.256Z,101228.06
2023-03-20T02:36:48.550Z,101227.38
2023-03-20T02:39:36.669Z,101215.22
2023-03-20T02:42:14.521Z,101232.28
2023-03-20T02:44:49.103Z,101241.69
2023-03-20T02:47:26.819Z,101190.09
2023-03-20T02:50:05.345Z,101219.44
2023-03-20T02:52:43.600Z,101234.22
2023-03-20T02:55:21.453Z,101239.19
2023-03-20T02:58:01.078Z,101164.03
2023-03-20T03:00:36.649Z,101197.88
2023-03-20T03:03:11.601Z,101231.34
2023-03-20T03:05:47.873Z,101234.66
2023-03-20T03:08:23.139Z,101203.38
2023-03-20T03:10:58.268Z,101248.88
2023-03-20T03:13:32.556Z,101245.59
2023-03-20T03:16:09.835Z,101240.09
2023-03-20T03:18:41.604Z,101247.22
2023-03-20T03:21:15.796Z,101238.56
2023-03-20T03:23:48.477Z,101239.53
2023-03-20T03:26:25.389Z,101224.81
2023-03-20T03:29:01.633Z,101242.78
2023-03-20T03:31:32.797Z,101243.66
2023-03-20T03:34:04.128Z,101242.56
2023-03-20T03:36:43.119Z,101232.63
2023-03-20T03:39:21.479Z,101242.91
2023-03-20T03:41:56.640Z,101243.03
2023-03-20T03:44:32.408Z,101223.19
2023-03-20T03:47:07.805Z,101229.63
2023-03-20T03:49:40.543Z,101216.81
2023-03-20T03:52:14.709Z,101231.59
2023-03-20T03:54:48.537Z,101217.63
2023-03-20T03:57:40.981Z,101238.56
2023-03-20T04:00:19.435Z,101240.44
2023-03-20T04:02:52.784Z,101231.25
2023-03-20T04:05:23.458Z,101203.19
2023-03-20T04:07:57.682Z,101205.31
2023-03-20T04:10:27.375Z,101212.78
2023-03-20T04:12:59.621Z,101212.78
2023-03-20T04:15:29.715Z,101205.47
2023-03-20T04:18:00.200Z,101208.09
2023-03-20T04:20:30.230Z,101194.63
2023-03-20T04:23:01.634Z,101211.84
2023-03-20T04:25:31.513Z,101193.41
2023-03-20T04:28:03.745Z,101173.94
2023-03-20T04:30:48.377Z,101197.09
2023-03-20T04:33:18.045Z,101212.75
2023-03-20T04:36:08.393Z,101208.56
2023-03-20T04:38:38.111Z,101203.81
2023-03-20T04:41:08.857Z,101201.34
2023-03-20T04:43:41.422Z,101209.91
2023-03-20T04:46:11.673Z,101189.81
2023-03-20T04:48:41.344Z,101202.53
2023-03-20T04:51:11.729Z,101174.16
2023-03-20T04:53:47.971Z,101161.22
2023-03-20T04:56:17.872Z,101215.41
2023-03-20T04:58:51.269Z,101216.75
2023-03-20T05:01:23.654Z,101218.75
2023-03-20T05:03:57.926Z,101213.81
2023-03-20T05:06:28.221Z,101219.69
2023-03-20T05:08:59.170Z,101199.38
2023-03-20T05:11:29.005Z,101215.69
2023-03-20T05:14:16.862Z,101191.25
2023-03-20T05:16:54.940Z,101205.69
2023-03-20T05:19:43.478Z,101212.59
2023-03-20T05:22:16.618Z,101205.81
2023-03-20T05:24:51.989Z,101207.22
2023-03-20T05:27:49.713Z,101210.91
2023-03-20T05:30:39.866Z,101214.25
2023-03-20T05:33:47.683Z,101208.84
2023-03-20T05:36:24.869Z,101209.91
2023-03-20T05:38:58.765Z,101214.41
2023-03-20T05:41:48.799Z,101181.69
2023-03-20T05:44:38.026Z,101185.88
2023-03-20T05:47:28.673Z,101218.84
2023-03-20T05:50:05.760Z,101225.06
2023-03-20T05:52:50.113Z,101225.25
2023-03-20T05:55:31.422Z,101216.56
2023-03-20T05:58:13.975Z,101220.06
2023-03-20T06:01:00.594Z,101229.56
2023-03-20T06:03:51.542Z,101231.97
2023-03-20T06:06:38.308Z,101227.53
2023-03-20T06:09:08.416Z,101213.44
2023-03-20T06:11:38.329Z,101179.00
2023-03-20T06:14:10.004Z,101233.72
2023-03-20T06:16:42.784Z,101244.06
2023-03-20T06:19:16.072Z,101239.25
2023-03-20T06:21:45.860Z,101166.47
2023-03-20T06:24:18.936Z,101243.97
2023-03-20T06:26:49.040Z,101246.03
2023-03-20T06:29:18.668Z,101202.91
2023-03-20T06:31:48.994Z,101188.75
2023-03-20T06:34:30.300Z,101248.41
2023-03-20T06:36:59.931Z,101243.28
2023-03-20T06:39:29.629Z,101246.78
2023-03-20T06:41:59.593Z,101227.66
2023-03-20T06:44:29.667Z,101248.47
2023-03-20T06:47:15.753Z,101244.00
2023-03-20T06:49:48.128Z,101223.22
2023-03-20T06:52:19.895Z,101229.78
2023-03-20T06:54:59.026Z,101221.69
2023-03-20T06:57:28.650Z,101248.53
2023-03-20T06:59:58.422Z,101239.22
2023-03-20T07:02:28.860Z,101249.63
2023-03-20T07:05:01.226Z,101256.72
2023-03-20T07:07:31.611Z,101260.13
2023-03-20T07:10:01.616Z,101250.56
2023-03-20T07:12:32.448Z,101238.47
2023-03-20T07:15:03.509Z,101257.41
2023-03-20T07:17:33.543Z,101272.22
2023-03-20T07:20:05.902Z,101261.31
2023-03-20T07:22:35.741Z,101280.91
2023-03-20T07:25:41.734Z,101279.34
2023-03-20T07:28:13.961Z,101284.44
2023-03-20T07:30:46.824Z,101290.28
2023-03-20T07:33:19.605Z,101290.34
2023-03-20T07:35:55.301Z,101296.66
2023-03-20T07:38:26.219Z,101287.41
2023-03-20T07:41:07.912Z,101284.66
2023-03-20T07:43:42.534Z,101291.50
2023-03-20T07:46:37.155Z,101295.91
2023-03-20T07:49:06.813Z,101281.75
2023-03-20T07:51:39.184Z,101286.13
2023-03-20T07:54:08.946Z,101275.97
2023-03-20T07:56:40.291Z,101244.44
2023-03-20T07:59:11.729Z,101286.91
2023-03-20T08:01:41.434Z,101289.53
2023-03-20T08:04:11.556Z,101280.00
2023-03-20T08:06:43.868Z,101258.41
2023-03-20T08:09:13.725Z,101254.69
2023-03-20T08:11:43.601Z,101256.47
2023-03-20T08:14:13.425Z,101291.00
2023-03-20T08:16:43.150Z,101305.53
2023-03-20T08:19:12.784Z,101294.84
2023-03-20T08:21:45.083Z,101312.97
2023-03-20T08:24:14.697Z,101312.28
2023-03-20T08:26:44.400Z,101289.56
2023-03-20T08:29:17.353Z,101314.50
2023-03-20T08:31:46.970Z,101311.97
2023-03-20T08:34:16.631Z,101320.56
2023-03-20T08:36:49.056Z,101294.56
2023-03-20T08:39:18.812Z,101311.63
2023-03-20T08:41:48.535Z,101318.34
2023-03-20T08:44:18.202Z,101295.31
2023-03-20T08:46:47.828Z,101299.84
2023-03-20T08:49:17.468Z,101312.38
2023-03-20T08:51:49.685Z,101244.44
2023-03-20T08:54:19.785Z,101285.78
2023-03-20T08:56:49.483Z,101281.88
2023-03-20T08:59:19.461Z,101309.09
2023-03-20T09:01:50.528Z,101288.09
2023-03-20T09:04:21.245Z,101271.00
2023-03-20T09:06:53.684Z,101253.44
2023-03-20T09:09:29.445Z,101279.41
2023-03-20T09:11:59.619Z,101305.81
2023-03-20T09:14:30.604Z,101299.34
2023-03-20T09:17:00.312Z,101304.75
2023-03-20T09:19:31.676Z,101261.66
2023-03-20T09:22:04.075Z,101302.34
2023-03-20T09:24:34.193Z,101312.56
2023-03-20T09:27:03.905Z,101309.00
2023-03-20T09:29:33.613Z,101312.84
2023-03-20T09:32:03.283Z,101301.06
2023-03-20T09:34:32.965Z,101284.34
2023-03-20T09:37:05.459Z,101319.09
2023-03-20T09:39:35.314Z,101314.81
2023-03-20T09:42:14.351Z,101327.31
2023-03-20T09:44:57.162Z,101322.91
2023-03-20T09:47:37.606Z,101305.41
2023-03-20T09:50:23.879Z,101325.28
2023-03-20T09:53:03.519Z,101308.03
2023-03-20T09:55:37.655Z,101329.53
2023-03-20T09:58:15.559Z,101296.66
2023-03-20T10:00:48.614Z,101324.81
2023-03-20T10:03:22.442Z,101306.25
2023-03-20T10:05:57.404Z,101320.75
2023-03-20T10:08:32.781Z,101332.81
2023-03-20T10:11:15.926Z,101325.69
2023-03-20T10:14:03.001Z,101309.97
2023-03-20T10:16:44.763Z,101335.16
2023-03-20T10:19:24.012Z,101305.09
2023-03-20T10:22:00.722Z,101320.91
2023-03-20T10:24:38.833Z,101268.56
2023-03-20T10:27:20.898Z,101305.47
2023-03-20T10:29:58.937Z,101324.66
2023-03-20T10:32:36.618Z,101299.50
2023-03-20T10:35:19.044Z,101336.56
2023-03-20T10:38:02.809Z,101310.59
2023-03-20T10:40:37.540Z,101284.06
2023-03-20T10:43:17.412Z,101297.94
2023-03-20T10:45:51.054Z,101317.09
2023-03-20T10:48:27.500Z,101322.66
2023-03-20T10:50:59.929Z,101283.22
2023-03-20T10:53:35.004Z,101275.66
2023-03-20T10:56:11.653Z,101293.63
2023-03-20T10:58:44.282Z,101288.81
2023-03-20T11:01:14.259Z,101279.00
2023-03-20T11:03:44.254Z,101288.41
2023-03-20T11:06:21.897Z,101276.81
2023-03-20T11:08:54.971Z,101282.75
2023-03-20T11:11:29.317Z,101273.31
2023-03-20T11:13:59.064Z,101296.16
2023-03-20T11:16:33.890Z,101235.34
2023-03-20T11:19:09.682Z,101273.31
2023-03-20T11:21:49.054Z,101267.66
2023-03-20T11:24:28.685Z,101280.22
2023-03-20T11:27:08.808Z,101281.69
2023-03-20T11:29:39.021Z,101282.91
2023-03-20T11:32:23.384Z,101268.28
2023-03-20T11:34:57.422Z,101266.28
2023-03-20T11:37:29.549Z,101240.06
2023-03-20T11:40:03.614Z,101269.25
2023-03-20T11:42:37.329Z,101257.97
2023-03-20T11:45:09.649Z,101257.38
2023-03-20T11:47:39.381Z,101253.81
2023-03-20T11:50:26.846Z,101256.22
2023-03-20T11:52:57.221Z,101260.63
2023-03-20T11:55:29.948Z,101253.16
2023-03-20T11:58:04.167Z,101263.06
2023-03-20T12:00:41.444Z,101254.75
2023-03-20T12:03:55.490Z,101253.31
2023-03-20T12:06:28.512Z,101232.19
2023-03-20T12:09:03.519Z,101250.28
2023-03-20T12:11:48.346Z,101224.19
2023-03-20T12:14:31.132Z,101250.22
2023-03-20T12:17:18.126Z,101241.50
2023-03-20T12:19:50.868Z,101212.13
2023-03-20T12:22:27.293Z,101232.88
2023-03-20T12:25:04.062Z,101248.03
2023-03-20T12:27:38.085Z,101244.09
2023-03-20T12:30:17.029Z,101245.97
2023-03-20T12:32:55.784Z,101238.22
2023-03-20T12:35:29.581Z,101236.25
2023-03-20T12:38:00.125Z,101239.31
2023-03-20T12:40:42.504Z,101241.19
2023-03-20T12:43:18.590Z,101244.84
2023-03-20T12:45:56.010Z,101239.72
2023-03-20T12:48:47.153Z,101222.19
2023-03-20T12:51:26.075Z,101236.56
2023-03-20T12:54:06.432Z,101221.63
2023-03-20T12:56:53.742Z,101219.59
2023-03-20T12:59:32.708Z,101221.31
2023-03-20T13:02:17.751Z,101205.66
2023-03-20T13:05:00.244Z,101215.28
2023-03-20T13:07:46.777Z,101214.69
2023-03-20T13:10:22.473Z,101210.66
2023-03-20T13:13:06.193Z,101211.06
2023-03-20T13:15:51.788Z,101205.41
2023-03-20T13:18:34.494Z,101183.75
2023-03-20T13:21:11.640Z,101231.34
2023-03-20T13:23:47.152Z,101207.97
2023-03-20T13:26:28.354Z,101218.75
2023-03-20T13:29:06.096Z,101183.13
2023-03-20T13:31:46.735Z,101207.34
2023-03-20T13:34:31.879Z,101208.09
2023-03-20T13:37:24.263Z,101211.06
2023-03-20T13:40:03.574Z,101208.69
2023-03-20T13:42:38.265Z,101168.31
2023-03-20T13:45:20.089Z,101213.81
2023-03-20T13:47:50.851Z,101208.84
2023-03-20T13:50:51.156Z,101209.38
2023-03-20T13:53:32.782Z,101203.63
2023-03-20T13:56:10.737Z,101202.53
2023-03-20T13:58:56.395Z,101196.19
2023-03-20T14:01:32.472Z,101178.84
2023-03-20T14:04:05.427Z,101170.78
2023-03-20T14:06:55.466Z,101202.59
2023-03-20T14:09:37.128Z,101199.25
2023-03-20T14:12:10.106Z,101202.03
2023-03-20T14:14:46.330Z,101193.28
2023-03-20T14:17:20.866Z,101162.72
2023-03-20T14:19:51.809Z,101197.28
2023-03-20T14:22:27.800Z,101193.84
2023-03-20T14:25:02.539Z,101075.06
2023-03-20T14:27:44.785Z,101147.22
2023-03-20T14:30:44.021Z,101191.00
2023-03-20T14:33:33.563Z,101189.84
2023-03-20T14:36:31.621Z,101179.34
2023-03-20T14:39:13.768Z,101190.06
2023-03-20T14:41:59.305Z,101193.13
2023-03-20T14:44:43.629Z,101198.50
2023-03-20T14:47:23.803Z,101185.81
2023-03-20T14:49:59.979Z,101166.59
2023-03-20T14:52:43.637Z,101177.31
2023-03-20T14:55:37.675Z,101174.09
2023-03-20T14:58:28.391Z,101190.66
2023-03-20T15:00:58.072Z,101188.69
2023-03-20T15:03:28.060Z,101114.94
2023-03-20T15:06:01.300Z,101185.78
2023-03-20T15:08:34.766Z,101163.53
2023-03-20T15:11:10.837Z,101192.03
2023-03-20T15:13:40.949Z,101180.34
2023-03-20T15:16:13.042Z,101184.84
2023-03-20T15:18:45.591Z,101176.34
2023-03-20T15:21:17.898Z,101132.44
2023-03-20T15:23:48.588Z,101184.84
2023-03-20T15:26:22.647Z,101186.63
2023-03-20T15:28:52.414Z,101129.59
2023-03-20T15:31:26.422Z,101192.47
2023-03-20T15:33:57.566Z,101103.09
2023-03-20T15:36:31.021Z,101189.34
2023-03-20T15:39:08.718Z,101163.41
2023-03-20T15:41:41.293Z,101182.38
2023-03-20T15:44:21.138Z,101152.22
2023-03-20T15:46:56.758Z,101183.84
2023-03-20T15:49:27.132Z,101164.84
2023-03-20T15:52:00.085Z,101187.06
2023-03-20T15:54:30.093Z,101178.53
2023-03-20T15:57:03.388Z,101186.13
2023-03-20T15:59:36.557Z,101165.38
2023-03-20T16:02:07.039Z,101161.06
2023-03-20T16:04:37.198Z,101168.19
2023-03-20T16:07:07.039Z,101167.38
2023-03-20T16:09:46.003Z,101169.41
2023-03-20T16:12:20.578Z,101180.63
2023-03-20T16:14:51.405Z,101124.09
2023-03-20T16:17:23.028Z,101157.97
2023-03-20T16:19:52.718Z,101170.81
2023-03-20T16:22:27.397Z,101168.09
2023-03-20T16:24:58.808Z,101157.59
2023-03-20T16:27:35.522Z,101168.66
2023-03-20T16:30:08.652Z,101166.81
2023-03-20T16:32:41.724Z,101152.13
2023-03-20T16:35:19.508Z,101148.06
2023-03-20T16:37:51.976Z,101162.56
2023-03-20T16:40:32.411Z,101124.63
2023-03-20T16:43:14.778Z,101170.69
2023-03-20T16:45:46.547Z,101132.34
2023-03-20T16:48:34.298Z,101174.94
2023-03-20T16:51:13.420Z,101152.41
2023-03-20T16:53:47.357Z,101172.09
2023-03-20T16:56:20.050Z,101149.94
2023-03-20T16:58:54.009Z,101163.84
2023-03-20T17:01:27.577Z,101153.63
2023-03-20T17:03:59.707Z,101162.56
2023-03-20T17:06:38.502Z,101139.28
2023-03-20T17:09:24.116Z,101159.91
2023-03-20T17:12:00.691Z,101163.31
2023-03-20T17:14:33.251Z,101154.94
2023-03-20T17:17:02.880Z,101154.75
2023-03-20T17:19:35.625Z,101155.88
2023-03-20T17:22:13.069Z,101163.78
2023-03-20T17:24:42.677Z,101164.97
2023-03-20T17:27:15.102Z,101181.53
2023-03-20T17:29:49.381Z,101176.66
2023-03-20T17:32:23.916Z,101184.66
2023-03-20T17:34:54.268Z,101131.13
2023-03-20T17:37:29.659Z,101185.38
2023-03-20T17:40:00.917Z,101193.56
2023-03-20T17:42:33.439Z,101191.66
2023-03-20T17:45:06.678Z,101188.47
2023-03-20T17:47:36.865Z,101194.19
2023-03-20T17:50:07.421Z,101189.84
2023-03-20T17:52:37.355Z,101180.09
2023-03-20T17:55:07.781Z,101162.16
2023-03-20T17:57:38.929Z,101172.88
2023-03-20T18:00:17.758Z,101184.75
2023-03-20T18:02:47.538Z,101193.59
2023-03-20T18:05:17.991Z,101188.75
2023-03-20T18:07:47.679Z,101189.03
2023-03-20T18:10:23.649Z,101114.53
2023-03-20T18:12:53.724Z,101174.91
2023-03-20T18:15:26.416Z,101194.59
2023-03-20T18:17:56.291Z,101199.03
2023-03-20T18:20:29.568Z,101194.25
2023-03-20T18:22:59.716Z,101187.09
2023-03-20T18:25:30.221Z,101150.53
2023-03-20T18:28:01.508Z,101197.47
2023-03-20T18:30:38.356Z,101198.22
2023-03-20T18:33:08.689Z,101143.56
2023-03-20T18:35:38.968Z,101175.75
2023-03-20T18:38:09.052Z,101186.75
2023-03-20T18:40:40.147Z,101195.06
2023-03-20T18:43:09.965Z,101176.78
2023-03-20T18:45:42.423Z,101189.91
2023-03-20T18:48:14.780Z,101186.22
2023-03-20T18:50:44.887Z,101193.41
2023-03-20T18:53:14.829Z,101181.19
2023-03-20T18:55:45.005Z,101169.56
2023-03-20T18:58:22.930Z,101170.19
2023-03-20T19:00:56.676Z,101208.28
2023-03-20T19:03:28.704Z,101183.84
2023-03-20T19:06:00.935Z,101181.66
2023-03-20T19:08:34.109Z,101184.97
2023-03-20T19:11:04.402Z,101202.16
2023-03-20T19:13:34.349Z,101188.53
2023-03-20T19:16:08.491Z,101199.47
2023-03-20T19:18:40.010Z,101201.06
2023-03-20T19:21:09.894Z,101197.56
2023-03-20T19:23:40.176Z,101198.19
2023-03-20T19:26:17.799Z,101180.03
2023-03-20T19:28:48.947Z,101188.59
2023-03-20T19:31:21.465Z,101185.25
2023-03-20T19:33:51.440Z,101159.34
2023-03-20T19:36:26.780Z,101158.44
2023-03-20T19:38:59.857Z,101167.06
2023-03-20T19:41:32.276Z,101175.38
2023-03-20T19:44:02.682Z,101185.25
2023-03-20T19:46:42.736Z,101163.50
2023-03-20T19:49:19.969Z,101172.09
2023-03-20T19:51:50.676Z,101171.69
2023-03-20T19:54:20.331Z,101196.28
2023-03-20T19:56:53.009Z,101188.16
2023-03-20T19:59:23.286Z,101182.09
2023-03-20T20:01:55.856Z,101174.69
2023-03-20T20:04:25.854Z,101196.16
2023-03-20T20:07:07.275Z,101179.94
2023-03-20T20:09:45.697Z,101164.44
2023-03-20T20:12:15.330Z,101188.38
2023-03-20T20:14:44.939Z,101183.44
2023-03-20T20:17:17.300Z,101121.38
2023-03-20T20:19:46.969Z,101186.53
2023-03-20T20:22:25.180Z,101143.03
2023-03-20T20:24:55.745Z,101158.16
2023-03-20T20:27:29.278Z,101129.31
2023-03-20T20:29:59.969Z,101140.25
2023-03-20T20:32:33.132Z,101145.47
2023-03-20T20:35:39.915Z,101106.13
2023-03-20T20:40:46.524Z,101176.22
2023-03-20T20:43:39.010Z,101166.06
2023-03-20T20:46:06.098Z,101129.03
2023-03-20T20:48:40.206Z,101171.13
2023-03-20T20:51:10.003Z,101179.63
2023-03-20T20:53:39.625Z,101168.47
2023-03-20T20:56:10.606Z,101114.03
2023-03-20T20:58:40.804Z,101169.47
2023-03-20T21:01:10.810Z,101163.56
2023-03-20T21:03:43.119Z,101166.09
2023-03-20T21:06:13.254Z,101172.38
2023-03-20T21:08:42.943Z,101168.16
2023-03-20T21:11:15.210Z,101166.72
2023-03-20T21:13:45.173Z,101133.19
2023-03-20T21:16:17.853Z,101163.81
2023-03-20T21:18:50.629Z,101170.69
2023-03-20T21:21:20.610Z,101140.59
2023-03-20T21:23:51.262Z,101165.84
2023-03-20T21:26:21.281Z,101158.88
2023-03-20T21:28:50.953Z,101158.59
2023-03-20T21:31:31.012Z,101150.72
2023-03-20T21:34:05.198Z,101150.78
2023-03-20T21:36:35.347Z,101144.94
2023-03-20T21:39:08.770Z,101158.72
2023-03-20T21:41:40.511Z,101121.34
2023-03-20T21:44:17.132Z,101158.91
2023-03-20T21:50:31.161Z,101139.78
2023-03-20T21:53:12.013Z,101142.50
2023-03-20T21:56:23.734Z,101132.31
2023-03-20T21:58:53.583Z,101148.28
2023-03-20T22:01:45.095Z,101148.81
2023-03-20T22:04:45.184Z,101129.59
2023-03-20T22:15:54.275Z,101141.25
2023-03-20T22:18:50.625Z,101155.13
2023-03-20T22:33:16.835Z,101145.03
2023-03-20T22:38:49.555Z,101140.66
2023-03-20T22:41:59.264Z,101151.88
2023-03-20T22:46:49.453Z,101151.06
2023-03-20T22:49:19.140Z,101143.09
2023-03-20T22:52:07.687Z,101089.91
2023-03-20T22:54:38.826Z,101121.19
2023-03-20T22:57:11.560Z,101141.09
2023-03-20T22:59:41.515Z,101120.69
2023-03-20T23:02:11.602Z,101132.38
2023-03-20T23:04:59.930Z,101134.56
2023-03-20T23:07:48.498Z,101142.22
2023-03-20T23:10:18.250Z,101143.28
2023-03-20T23:12:50.508Z,101076.84
2023-03-20T23:15:20.334Z,101118.56
2023-03-20T23:17:49.989Z,101131.44
2023-03-20T23:20:21.744Z,101133.25
2023-03-20T23:22:52.255Z,101143.56
2023-03-20T23:25:36.303Z,101132.09
2023-03-20T23:28:12.302Z,101127.88
2023-03-20T23:30:51.879Z,101114.38
2023-03-20T23:33:29.363Z,101129.63
2023-03-20T23:36:12.523Z,101141.75
2023-03-20T23:38:46.091Z,101146.09
2023-03-20T23:41:16.411Z,101124.72
2023-03-20T23:43:48.626Z,101139.28
2023-03-20T23:46:18.321Z,101136.41
2023-03-20T23:48:48.006Z,101102.72
2023-03-20T23:51:17.636Z,101132.00
2023-03-20T23:53:47.278Z,101075.91
2023-03-20T23:56:16.937Z,101104.25
2023-03-20T23:58:59.451Z,101109.19
